Time,TemperatureF,DewpointF,PressureIn,WindDirection,WindDirectionDegrees,WindSpeedMPH,WindSpeedGustMPH,Humidity,HourlyPrecipIn,Conditions,Clouds,dailyrainin,SoftwareType,DateUTC
2013-06-13 00:02:00,60.6,59.2,28.56,NNE,22,3.5,3.5,95,0.00,RA,,0.00,WeatherDisplay:10.37,2013-06-13 05:02:00,
2013-06-13 00:03:00,60.6,59.2,28.56,North,0,3.5,3.5,95,0.00,RA,,0.00,WeatherDisplay:10.37,2013-06-13 05:03:00,
2013-06-13 00:04:00,60.6,59.2,28.56,NW,315,3.5,3.5,95,0.00,RA,,0.00,WeatherDisplay:10.37,2013-06-13 05:04:00,
2013-06-13 00:07:00,60.8,59.1,28.56,NW,315,5.9,5.9,94,0.00,RA,,0.00,WeatherDisplay:10.37,2013-06-13 05:07:00,
2013-06-13 00:08:00,60.8,59.1,28.56,NNE,22,4.6,4.6,94,0.00,RA,,0.00,WeatherDisplay:10.37,2013-06-13 05:08:00,
2013-06-13 00:09:00,60.8,59.1,28.56,North,0,5.8,5.8,94,0.00,RA,,0.00,WeatherDisplay:10.37,2013-06-13 05:09:00,
2013-06-13 00:12:00,60.8,59.1,28.56,NNE,22,4.6,4.6,94,0.00,CLR,,0.00,WeatherDisplay:10.37,2013-06-13 05:12:00,
2013-06-13 00:13:00,60.8,59.4,28.56,North,0,4.6,4.6,95,0.00,CLR,,0.00,WeatherDisplay:10.37,2013-06-13 05:13:00,
2013-06-13 00:14:00,60.8,59.4,28.56,NNW,338,4.0,4.0,95,0.00,CLR,,0.00,WeatherDisplay:10.37,2013-06-13 05:14:00,
2013-06-13 00:18:00,60.8,59.4,28.56,NNW,338,4.3,4.3,95,0.00,CLR,,0.00,WeatherDisplay:10.37,2013-06-13 05:18:00,
2013-06-13 00:19:00,60.8,59.1,28.56,NNE,22,3.5,3.5,94,0.00,CLR,,0.00,WeatherDisplay:10.37,2013-06-13 05:19:00,
2013-06-13 00:23:00,60.8,59.1,28.56,NW,315,3.5,3.5,94,0.00,CLR,,0.00,WeatherDisplay:10.37,2013-06-13 05:23:00,
2013-06-13 00:24:00,60.6,59.2,28.56,NW,315,4.6,4.6,95,0.00,CLR,,0.00,WeatherDisplay:10.37,2013-06-13 05:24:00,
2013-06-13 00:25:00,60.6,59.2,28.56,NNW,338,4.6,4.6,95,0.00,CLR,,0.00,WeatherDisplay:10.37,2013-06-13 05:25:00,
2013-06-13 00:28:00,60.6,59.2,28.56,North,0,3.5,3.5,95,0.00,CLR,,0.00,WeatherDisplay:10.37,2013-06-13 05:28:00,
2013-06-13 00:29:00,60.6,59.2,28.56,North,0,3.5,3.5,95,0.00,CLR,,0.00,WeatherDisplay:10.37,2013-06-13 05:29:00,
2013-06-13 00:30:00,60.6,59.2,28.56,North,0,2.3,2.4,95,0.00,CLR,,0.00,WeatherDisplay:10.37,2013-06-13 05:30:00,
2013-06-13 00:33:00,60.6,59.2,28.56,NNE,22,3.5,3.5,95,0.00,CLR,,0.00,WeatherDisplay:10.37,2013-06-13 05:33:00,
2013-06-13 00:35:00,60.4,59.0,28.56,North,0,2.3,2.3,95,0.00,CLR,,0.00,WeatherDisplay:10.37,2013-06-13 05:35:00,
2013-06-13 00:38:00,60.4,59.0,28.56,NNE,22,5.8,5.8,95,0.00,CLR,,0.00,WeatherDisplay:10.37,2013-06-13 05:38:00,
2013-06-13 00:40:00,60.4,59.0,28.58,NW,315,4.3,4.3,95,0.00,CLR,,0.00,WeatherDisplay:10.37,2013-06-13 05:40:00,
2013-06-13 00:44:00,60.3,58.8,28.58,North,0,1.4,1.4,95,0.00,CLR,,0.00,WeatherDisplay:10.37,2013-06-13 05:44:00,
2013-06-13 00:45:00,60.3,58.8,28.58,North,0,2.9,2.9,95,0.00,CLR,,0.00,WeatherDisplay:10.37,2013-06-13 05:45:00,
2013-06-13 00:49:00,60.1,58.6,28.58,NNE,22,3.5,3.5,95,0.00,CLR,,0.00,WeatherDisplay:10.37,2013-06-13 05:49:00,
2013-06-13 00:50:00,60.1,58.6,28.58,NNW,338,3.5,3.5,95,0.00,CLR,,0.00,WeatherDisplay:10.37,2013-06-13 05:50:00,
2013-06-13 00:51:00,60.1,58.6,28.58,NNE,22,3.5,3.5,95,0.00,CLR,,0.00,WeatherDisplay:10.37,2013-06-13 05:51:00,
2013-06-13 00:54:00,60.1,58.6,28.58,East,90,2.3,2.3,95,0.00,CLR,,0.00,WeatherDisplay:10.37,2013-06-13 05:54:00,
2013-06-13 00:55:00,60.1,58.6,28.58,ENE,68,2.3,0.0,95,0.00,CLR,,0.00,WeatherDisplay:10.37,2013-06-13 05:55:00,
2013-06-13 00:56:00,60.1,58.6,28.58,ENE,68,2.3,0.0,95,0.00,CLR,,0.00,WeatherDisplay:10.37,2013-06-13 05:56:00,
2013-06-13 01:00:00,59.9,58.5,28.58,ENE,68,1.2,1.2,95,0.00,CLR,,0.00,WeatherDisplay:10.37,2013-06-13 06:00:00,
2013-06-13 01:01:00,59.9,58.5,28.58,ENE,68,0.9,0.0,95,0.00,CLR,,0.00,WeatherDisplay:10.37,2013-06-13 06:01:00,
2013-06-13 01:05:00,59.5,58.1,28.58,NNE,22,1.2,0.0,95,0.00,CLR,,0.00,WeatherDisplay:10.37,2013-06-13 06:05:00,
2013-06-13 01:06:00,59.5,58.1,28.58,NW,315,1.6,0.0,95,0.00,CLR,,0.00,WeatherDisplay:10.37,2013-06-13 06:06:00,
2013-06-13 01:10:00,59.5,58.1,28.61,NW,315,2.3,2.3,95,0.00,CLR,,0.00,WeatherDisplay:10.37,2013-06-13 06:10:00,
2013-06-13 01:11:00,59.5,58.1,28.61,North,0,3.1,3.1,95,0.00,CLR,,0.00,WeatherDisplay:10.37,2013-06-13 06:11:00,
2013-06-13 01:15:00,59.9,58.8,28.61,North,0,5.8,5.8,96,0.00,CLR,,0.00,WeatherDisplay:10.37,2013-06-13 06:15:00,
2013-06-13 01:16:00,59.9,58.8,28.61,North,0,4.6,4.6,96,0.00,CLR,,0.00,WeatherDisplay:10.37,2013-06-13 06:16:00,
2013-06-13 01:21:00,60.3,59.7,28.61,NNW,338,5.8,5.8,98,0.00,CLR,,0.00,WeatherDisplay:10.37,2013-06-13 06:21:00,
2013-06-13 01:26:00,60.4,59.9,28.61,North,0,6.0,6.0,98,0.00,CLR,,0.00,WeatherDisplay:10.37,2013-06-13 06:26:00,
2013-06-13 01:31:00,60.6,60.1,28.61,NW,315,4.6,4.6,98,0.00,CLR,,0.00,WeatherDisplay:10.37,2013-06-13 06:31:00,
2013-06-13 01:32:00,60.8,60.2,28.61,NW,315,6.2,6.2,98,0.00,CLR,,0.00,WeatherDisplay:10.37,2013-06-13 06:32:00,
2013-06-13 01:36:00,61.0,60.4,28.61,North,0,4.6,4.6,98,0.00,CLR,,0.00,WeatherDisplay:10.37,2013-06-13 06:36:00,
2013-06-13 01:37:00,61.0,60.4,28.61,NNW,338,4.6,4.6,98,0.00,CLR,,0.00,WeatherDisplay:10.37,2013-06-13 06:37:00,
2013-06-13 01:41:00,61.0,60.4,28.61,North,0,6.9,6.9,98,0.00,CLR,,0.00,WeatherDisplay:10.37,2013-06-13 06:41:00,
2013-06-13 01:42:00,61.0,60.4,28.61,NNW,338,6.9,6.9,98,0.00,CLR,,0.00,WeatherDisplay:10.37,2013-06-13 06:42:00,
2013-06-13 01:43:00,61.0,60.4,28.61,NNW,338,6.9,6.9,98,0.00,CLR,,0.00,WeatherDisplay:10.37,2013-06-13 06:43:00,
2013-06-13 01:46:00,61.0,60.4,28.61,North,0,5.9,5.9,98,0.00,CLR,,0.00,WeatherDisplay:10.37,2013-06-13 06:46:00,
2013-06-13 01:47:00,61.0,60.4,28.61,North,0,5.8,5.8,98,0.00,CLR,,0.00,WeatherDisplay:10.37,2013-06-13 06:47:00,
2013-06-13 01:48:00,61.0,60.4,28.61,NNW,338,5.8,5.8,98,0.00,CLR,,0.00,WeatherDisplay:10.37,2013-06-13 06:48:00,
2013-06-13 01:51:00,61.0,60.4,28.61,North,0,5.8,5.8,98,0.00,CLR,,0.00,WeatherDisplay:10.37,2013-06-13 06:51:00,
2013-06-13 01:52:00,61.0,60.4,28.61,North,0,5.8,5.8,98,0.00,CLR,,0.00,WeatherDisplay:10.37,2013-06-13 06:52:00,
2013-06-13 01:53:00,61.0,60.4,28.61,NW,315,3.5,3.5,98,0.00,CLR,,0.00,WeatherDisplay:10.37,2013-06-13 06:53:00,
2013-06-13 01:56:00,60.8,60.2,28.61,NW,315,3.5,3.5,98,0.00,CLR,,0.00,WeatherDisplay:10.37,2013-06-13 06:56:00,
2013-06-13 01:57:00,60.8,60.2,28.61,North,0,3.5,3.5,98,0.00,CLR,,0.00,WeatherDisplay:10.37,2013-06-13 06:57:00,
2013-06-13 01:58:00,60.8,60.2,28.61,NW,315,5.8,5.8,98,0.00,CLR,,0.00,WeatherDisplay:10.37,2013-06-13 06:58:00,
2013-06-13 02:02:00,60.6,60.1,28.61,NW,315,3.5,3.5,98,0.00,CLR,,0.00,WeatherDisplay:10.37,2013-06-13 07:02:00,
2013-06-13 02:03:00,60.6,60.1,28.61,NNW,338,3.5,3.5,98,0.00,CLR,,0.00,WeatherDisplay:10.37,2013-06-13 07:03:00,
2013-06-13 02:07:00,60.6,60.1,28.61,NNE,22,3.5,3.5,98,0.00,CLR,,0.00,WeatherDisplay:10.37,2013-06-13 07:07:00,
2013-06-13 02:08:00,60.6,60.1,28.61,NE,45,2.4,2.4,98,0.00,CLR,,0.00,WeatherDisplay:10.37,2013-06-13 07:08:00,
2013-06-13 02:12:00,60.6,60.1,28.61,North,0,3.5,3.5,98,0.00,CLR,,0.00,WeatherDisplay:10.37,2013-06-13 07:12:00,
2013-06-13 02:13:00,60.6,60.1,28.61,NW,315,3.3,3.3,98,0.00,CLR,,0.00,WeatherDisplay:10.37,2013-06-13 07:13:00,
2013-06-13 02:17:00,60.6,60.1,28.61,NNW,338,2.3,2.3,98,0.00,CLR,,0.00,WeatherDisplay:10.37,2013-06-13 07:17:00,
2013-06-13 02:18:00,60.4,59.9,28.61,NW,315,1.2,0.0,98,0.00,CLR,,0.00,WeatherDisplay:10.37,2013-06-13 07:18:00,
2013-06-13 02:19:00,60.4,59.9,28.61,NW,315,3.1,0.0,98,0.00,CLR,,0.00,WeatherDisplay:10.37,2013-06-13 07:19:00,
2013-06-13 02:22:00,60.4,59.6,28.61,NW,315,2.3,2.3,97,0.00,CLR,,0.00,WeatherDisplay:10.37,2013-06-13 07:22:00,
2013-06-13 02:23:00,60.4,59.6,28.61,North,0,2.4,2.4,97,0.00,CLR,,0.00,WeatherDisplay:10.37,2013-06-13 07:23:00,
2013-06-13 02:24:00,60.4,59.6,28.61,NW,315,4.0,4.0,97,0.00,CLR,,0.00,WeatherDisplay:10.37,2013-06-13 07:24:00,
2013-06-13 02:27:00,60.4,59.9,28.61,North,0,4.6,4.6,98,0.00,CLR,,0.00,WeatherDisplay:10.37,2013-06-13 07:27:00,
2013-06-13 02:29:00,60.4,59.9,28.61,North,0,3.5,3.5,98,0.00,CLR,,0.00,WeatherDisplay:10.37,2013-06-13 07:29:00,
2013-06-13 02:30:00,60.4,59.9,28.61,NNW,338,2.4,2.4,98,0.00,CLR,,0.00,WeatherDisplay:10.37,2013-06-13 07:30:00,
2013-06-13 02:32:00,60.4,59.9,28.61,North,0,1.2,0.0,98,0.00,CLR,,0.00,WeatherDisplay:10.37,2013-06-13 07:32:00,
2013-06-13 02:33:00,60.4,59.9,28.61,North,0,1.2,0.0,98,0.00,CLR,,0.00,WeatherDisplay:10.37,2013-06-13 07:33:00,
2013-06-13 02:34:00,60.3,59.7,28.61,North,0,1.2,0.0,98,0.00,CLR,,0.00,WeatherDisplay:10.37,2013-06-13 07:34:00,
2013-06-13 02:36:00,60.3,59.7,28.61,North,0,2.3,0.0,98,0.00,CLR,,0.00,WeatherDisplay:10.37,2013-06-13 07:36:00,
2013-06-13 02:38:00,60.3,59.7,28.61,NW,315,1.2,0.0,98,0.00,CLR,,0.00,WeatherDisplay:10.37,2013-06-13 07:38:00,
2013-06-13 02:39:00,60.3,59.7,28.61,NNW,338,1.4,1.4,98,0.00,CLR,,0.00,WeatherDisplay:10.37,2013-06-13 07:39:00,
2013-06-13 02:41:00,60.3,59.7,28.64,WNW,292,3.5,3.5,98,0.00,CLR,,0.00,WeatherDisplay:10.37,2013-06-13 07:41:00,
2013-06-13 02:43:00,60.3,59.7,28.64,North,0,3.1,3.1,98,0.00,CLR,,0.00,WeatherDisplay:10.37,2013-06-13 07:43:00,
2013-06-13 02:44:00,60.3,59.7,28.64,NW,315,3.5,3.5,98,0.00,CLR,,0.00,WeatherDisplay:10.37,2013-06-13 07:44:00,
2013-06-13 02:45:00,60.3,59.7,28.64,North,0,3.5,3.5,98,0.00,CLR,,0.00,WeatherDisplay:10.37,2013-06-13 07:45:00,
2013-06-13 02:46:00,60.3,59.7,28.64,NW,315,1.2,0.0,98,0.00,CLR,,0.00,WeatherDisplay:10.37,2013-06-13 07:46:00,
2013-06-13 02:48:00,60.1,59.5,28.64,East,90,0.0,0.0,98,0.00,CLR,,0.00,WeatherDisplay:10.37,2013-06-13 07:48:00,
2013-06-13 02:49:00,60.1,59.5,28.64,ENE,68,1.2,0.0,98,0.00,CLR,,0.00,WeatherDisplay:10.37,2013-06-13 07:49:00,
2013-06-13 02:50:00,60.1,59.5,28.64,North,353,0.0,1.0,98,0.00,CLR,,0.00,WeatherDisplay:10.37,2013-06-13 07:50:00,
2013-06-13 02:51:00,60.1,59.5,28.64,East,90,1.2,0.0,98,0.00,CLR,,0.00,WeatherDisplay:10.37,2013-06-13 07:51:00,
2013-06-13 02:53:00,60.1,59.5,28.64,NE,45,1.2,0.0,98,0.00,CLR,,0.00,WeatherDisplay:10.37,2013-06-13 07:53:00,
2013-06-13 02:55:00,60.1,59.5,28.64,ESE,112,0.0,0.0,98,0.00,CLR,,0.00,WeatherDisplay:10.37,2013-06-13 07:55:00,
2013-06-13 02:57:00,60.1,59.5,28.64,ESE,112,1.2,0.0,98,0.00,CLR,,0.00,WeatherDisplay:10.37,2013-06-13 07:57:00,
2013-06-13 02:58:00,60.1,59.5,28.64,SSE,158,1.2,0.0,98,0.00,CLR,,0.00,WeatherDisplay:10.37,2013-06-13 07:58:00,
2013-06-13 02:59:00,60.1,59.5,28.64,SSE,158,1.2,0.0,98,0.00,CLR,,0.00,WeatherDisplay:10.37,2013-06-13 07:59:00,
2013-06-13 03:00:00,60.1,59.5,28.64,ESE,112,0.0,0.0,98,0.00,CLR,,0.00,WeatherDisplay:10.37,2013-06-13 08:00:00,
2013-06-13 03:02:00,60.1,59.5,28.64,ESE,112,0.0,0.0,98,0.00,CLR,,0.00,WeatherDisplay:10.37,2013-06-13 08:02:00,
2013-06-13 03:04:00,59.9,59.3,28.64,SSE,158,0.0,0.0,98,0.00,CLR,,0.00,WeatherDisplay:10.37,2013-06-13 08:04:00,
2013-06-13 03:05:00,59.9,59.3,28.64,SSE,158,0.0,0.0,98,0.00,CLR,,0.00,WeatherDisplay:10.37,2013-06-13 08:05:00,
2013-06-13 03:07:00,59.9,59.3,28.64,SSE,158,0.0,0.0,98,0.00,CLR,,0.00,WeatherDisplay:10.37,2013-06-13 08:07:00,
2013-06-13 03:09:00,59.9,59.3,28.64,SSE,158,0.0,0.0,98,0.00,CLR,,0.00,WeatherDisplay:10.37,2013-06-13 08:09:00,
2013-06-13 03:10:00,59.9,59.3,28.64,SSE,158,0.0,0.0,98,0.00,CLR,,0.00,WeatherDisplay:10.37,2013-06-13 08:10:00,
2013-06-13 03:11:00,59.9,59.3,28.64,SSE,158,0.0,0.0,98,0.00,CLR,,0.00,WeatherDisplay:10.37,2013-06-13 08:11:00,
2013-06-13 03:12:00,59.9,59.3,28.64,SSE,158,0.0,0.0,98,0.00,CLR,,0.00,WeatherDisplay:10.37,2013-06-13 08:12:00,
2013-06-13 03:14:00,59.9,59.3,28.64,SSE,158,0.0,0.0,98,0.00,CLR,,0.00,WeatherDisplay:10.37,2013-06-13 08:14:00,
2013-06-13 03:15:00,59.7,59.2,28.64,SSE,158,0.0,0.0,98,0.00,CLR,,0.00,WeatherDisplay:10.37,2013-06-13 08:15:00,
2013-06-13 03:16:00,59.7,59.2,28.64,SSE,158,0.0,0.0,98,0.00,CLR,,0.00,WeatherDisplay:10.37,2013-06-13 08:16:00,
2013-06-13 03:17:00,59.7,59.2,28.64,SSE,158,0.0,0.0,98,0.00,CLR,,0.00,WeatherDisplay:10.37,2013-06-13 08:17:00,
2013-06-13 03:19:00,59.7,59.2,28.64,West,270,0.0,0.0,98,0.00,CLR,,0.00,WeatherDisplay:10.37,2013-06-13 08:19:00,
2013-06-13 03:20:00,59.5,59.0,28.64,WNW,292,0.0,0.0,98,0.00,CLR,,0.00,WeatherDisplay:10.37,2013-06-13 08:20:00,
2013-06-13 03:22:00,59.5,59.0,28.64,WNW,292,2.0,0.0,98,0.00,CLR,,0.00,WeatherDisplay:10.37,2013-06-13 08:22:00,
2013-06-13 03:24:00,59.5,59.0,28.64,NW,315,2.3,2.3,98,0.00,CLR,,0.00,WeatherDisplay:10.37,2013-06-13 08:24:00,
2013-06-13 03:25:00,59.5,59.0,28.64,NW,315,2.3,2.3,98,0.00,CLR,,0.00,WeatherDisplay:10.37,2013-06-13 08:25:00,
2013-06-13 03:26:00,59.5,59.0,28.64,NNW,338,0.0,0.0,98,0.00,CLR,,0.00,WeatherDisplay:10.37,2013-06-13 08:26:00,
2013-06-13 03:27:00,59.5,59.0,28.64,North,0,2.3,2.3,98,0.00,CLR,,0.00,WeatherDisplay:10.37,2013-06-13 08:27:00,
2013-06-13 03:29:00,59.5,59.0,28.64,North,0,2.3,0.0,98,0.00,CLR,,0.00,WeatherDisplay:10.37,2013-06-13 08:29:00,
2013-06-13 03:30:00,59.5,59.0,28.64,NNW,338,2.3,2.3,98,0.00,CLR,,0.00,WeatherDisplay:10.37,2013-06-13 08:30:00,
2013-06-13 03:31:00,59.5,59.0,28.64,NNW,338,2.3,2.3,98,0.00,CLR,,0.00,WeatherDisplay:10.37,2013-06-13 08:31:00,
2013-06-13 03:32:00,59.5,59.0,28.64,NNW,338,1.2,1.4,98,0.00,CLR,,0.00,WeatherDisplay:10.37,2013-06-13 08:32:00,
2013-06-13 03:34:00,59.5,59.0,28.64,NNW,338,0.0,0.0,98,0.00,CLR,,0.00,WeatherDisplay:10.37,2013-06-13 08:34:00,
2013-06-13 03:35:00,59.4,58.8,28.64,NNW,338,0.0,0.0,98,0.00,CLR,,0.00,WeatherDisplay:10.37,2013-06-13 08:35:00,
2013-06-13 03:36:00,59.4,58.8,28.64,NNW,338,0.0,0.0,98,0.00,CLR,,0.00,WeatherDisplay:10.37,2013-06-13 08:36:00,
2013-06-13 03:37:00,59.4,58.8,28.64,NNW,338,0.0,0.0,98,0.00,CLR,,0.00,WeatherDisplay:10.37,2013-06-13 08:37:00,
2013-06-13 03:38:00,59.4,58.8,28.64,NNW,338,0.0,0.0,98,0.00,CLR,,0.00,WeatherDisplay:10.37,2013-06-13 08:38:00,
2013-06-13 03:39:00,59.4,58.8,28.64,NNW,338,0.0,0.0,98,0.00,CLR,,0.00,WeatherDisplay:10.37,2013-06-13 08:39:00,
2013-06-13 03:40:00,59.2,58.6,28.64,NNW,338,0.0,0.0,98,0.00,CLR,,0.00,WeatherDisplay:10.37,2013-06-13 08:40:00,
2013-06-13 03:41:00,59.2,58.6,28.64,NNW,338,0.0,0.0,98,0.00,CLR,,0.00,WeatherDisplay:10.37,2013-06-13 08:41:00,
2013-06-13 03:42:00,59.2,58.6,28.64,NNW,338,0.0,0.0,98,0.00,CLR,,0.00,WeatherDisplay:10.37,2013-06-13 08:42:00,
2013-06-13 03:43:00,59.2,58.6,28.64,West,270,0.0,0.0,98,0.00,CLR,,0.00,WeatherDisplay:10.37,2013-06-13 08:43:00,
2013-06-13 03:44:00,59.2,58.6,28.64,WNW,292,0.0,0.0,98,0.00,CLR,,0.00,WeatherDisplay:10.37,2013-06-13 08:44:00,
2013-06-13 03:45:00,59.2,58.6,28.64,West,270,2.3,2.3,98,0.00,CLR,,0.00,WeatherDisplay:10.37,2013-06-13 08:45:00,
2013-06-13 03:46:00,59.2,58.6,28.64,WNW,292,0.0,0.0,98,0.00,CLR,,0.00,WeatherDisplay:10.37,2013-06-13 08:46:00,
2013-06-13 03:47:00,59.2,58.6,28.64,WNW,292,0.0,0.0,98,0.00,CLR,,0.00,WeatherDisplay:10.37,2013-06-13 08:47:00,
2013-06-13 03:48:00,59.2,58.6,28.64,WNW,292,0.0,0.0,98,0.00,CLR,,0.00,WeatherDisplay:10.37,2013-06-13 08:48:00,
2013-06-13 03:50:00,59.2,58.6,28.64,WNW,292,0.0,0.0,98,0.00,CLR,,0.00,WeatherDisplay:10.37,2013-06-13 08:50:00,
2013-06-13 03:52:00,59.0,58.4,28.64,WNW,292,1.6,0.0,98,0.00,CLR,,0.00,WeatherDisplay:10.37,2013-06-13 08:52:00,
2013-06-13 03:53:00,59.2,58.6,28.64,WNW,292,2.3,2.3,98,0.00,CLR,,0.00,WeatherDisplay:10.37,2013-06-13 08:53:00,
2013-06-13 03:55:00,59.2,58.6,28.64,WNW,292,1.2,0.0,98,0.00,CLR,,0.00,WeatherDisplay:10.37,2013-06-13 08:55:00,
2013-06-13 03:56:00,59.2,58.6,28.64,WNW,292,0.0,0.0,98,0.00,CLR,,0.00,WeatherDisplay:10.37,2013-06-13 08:56:00,
2013-06-13 03:57:00,59.2,58.6,28.64,WNW,292,0.0,0.0,98,0.00,CLR,,0.00,WeatherDisplay:10.37,2013-06-13 08:57:00,
2013-06-13 03:58:00,59.2,58.6,28.64,WNW,292,0.0,0.0,98,0.00,CLR,,0.00,WeatherDisplay:10.37,2013-06-13 08:58:00,
2013-06-13 04:00:00,59.0,58.4,28.64,WNW,292,0.0,0.0,98,0.00,CLR,,0.00,WeatherDisplay:10.37,2013-06-13 09:00:00,
2013-06-13 04:01:00,59.0,58.4,28.64,WNW,292,1.2,0.0,98,0.00,CLR,,0.00,WeatherDisplay:10.37,2013-06-13 09:01:00,
2013-06-13 04:02:00,59.0,58.4,28.64,WNW,292,2.3,2.3,98,0.00,CLR,,0.00,WeatherDisplay:10.37,2013-06-13 09:02:00,
2013-06-13 04:03:00,59.0,58.4,28.64,WNW,292,0.0,0.0,98,0.00,CLR,,0.00,WeatherDisplay:10.37,2013-06-13 09:03:00,
2013-06-13 04:04:00,59.0,58.4,28.64,WNW,292,0.0,0.0,98,0.00,CLR,,0.00,WeatherDisplay:10.37,2013-06-13 09:04:00,
2013-06-13 04:05:00,59.0,58.4,28.64,WNW,292,0.0,0.0,98,0.00,CLR,,0.00,WeatherDisplay:10.37,2013-06-13 09:05:00,
2013-06-13 04:06:00,59.0,58.4,28.64,WNW,292,0.0,0.0,98,0.00,CLR,,0.00,WeatherDisplay:10.37,2013-06-13 09:06:00,
2013-06-13 04:07:00,58.8,58.3,28.64,WNW,292,0.0,0.0,98,0.00,CLR,,0.00,WeatherDisplay:10.37,2013-06-13 09:07:00,
2013-06-13 04:08:00,58.8,58.3,28.64,WNW,292,0.0,0.0,98,0.00,CLR,,0.00,WeatherDisplay:10.37,2013-06-13 09:08:00,
2013-06-13 04:09:00,58.8,58.3,28.64,WNW,292,0.0,0.0,98,0.00,CLR,,0.00,WeatherDisplay:10.37,2013-06-13 09:09:00,
2013-06-13 04:10:00,58.8,58.3,28.64,WNW,292,0.0,0.0,98,0.00,CLR,,0.00,WeatherDisplay:10.37,2013-06-13 09:10:00,
2013-06-13 04:11:00,58.8,58.3,28.64,WNW,292,0.0,0.0,98,0.00,CLR,,0.00,WeatherDisplay:10.37,2013-06-13 09:11:00,
2013-06-13 04:12:00,58.8,58.3,28.64,WNW,292,0.0,0.0,98,0.00,CLR,,0.00,WeatherDisplay:10.37,2013-06-13 09:12:00,
2013-06-13 04:13:00,58.8,58.3,28.64,WNW,292,0.0,0.0,98,0.00,CLR,,0.00,WeatherDisplay:10.37,2013-06-13 09:13:00,
2013-06-13 04:14:00,58.8,58.3,28.64,WNW,292,0.0,0.0,98,0.00,CLR,,0.00,WeatherDisplay:10.37,2013-06-13 09:14:00,
2013-06-13 04:16:00,58.8,58.3,28.64,WNW,292,0.0,0.0,98,0.00,CLR,,0.00,WeatherDisplay:10.37,2013-06-13 09:16:00,
2013-06-13 04:17:00,58.8,58.3,28.64,WNW,292,0.0,0.0,98,0.00,CLR,,0.00,WeatherDisplay:10.37,2013-06-13 09:17:00,
2013-06-13 04:18:00,58.8,58.3,28.64,WNW,292,2.3,2.3,98,0.00,CLR,,0.00,WeatherDisplay:10.37,2013-06-13 09:18:00,
2013-06-13 04:19:00,59.0,58.4,28.64,WNW,292,2.3,0.0,98,0.00,CLR,,0.00,WeatherDisplay:10.37,2013-06-13 09:19:00,
2013-06-13 04:21:00,59.0,58.4,28.64,WNW,292,0.0,0.0,98,0.00,CLR,,0.00,WeatherDisplay:10.37,2013-06-13 09:21:00,
2013-06-13 04:22:00,59.0,58.4,28.64,WNW,292,0.0,0.0,98,0.00,CLR,,0.00,WeatherDisplay:10.37,2013-06-13 09:22:00,
2013-06-13 04:24:00,59.0,58.4,28.64,NNW,338,2.3,2.3,98,0.00,CLR,,0.00,WeatherDisplay:10.37,2013-06-13 09:24:00,
2013-06-13 04:25:00,59.0,58.4,28.64,WNW,299,2.0,3.0,98,0.00,CLR,,0.00,WeatherDisplay:10.37,2013-06-13 09:25:00,
2013-06-13 04:26:00,59.0,58.4,28.64,NW,315,2.3,2.3,98,0.00,CLR,,0.00,WeatherDisplay:10.37,2013-06-13 09:26:00,
2013-06-13 04:27:00,59.0,58.4,28.64,NW,315,1.4,1.4,98,0.00,CLR,,0.00,WeatherDisplay:10.37,2013-06-13 09:27:00,
2013-06-13 04:29:00,59.0,58.4,28.64,NNW,338,1.2,0.0,98,0.00,CLR,,0.00,WeatherDisplay:10.37,2013-06-13 09:29:00,
2013-06-13 04:30:00,59.0,58.4,28.64,NNW,338,1.2,0.0,98,0.00,CLR,,0.00,WeatherDisplay:10.37,2013-06-13 09:30:00,
2013-06-13 04:31:00,58.8,58.3,28.64,NNW,338,0.0,0.0,98,0.00,CLR,,0.00,WeatherDisplay:10.37,2013-06-13 09:31:00,
2013-06-13 04:32:00,58.8,58.3,28.64,NNW,338,0.0,0.0,98,0.00,CLR,,0.00,WeatherDisplay:10.37,2013-06-13 09:32:00,
2013-06-13 04:34:00,58.8,58.3,28.64,NNW,338,1.6,0.0,98,0.00,CLR,,0.00,WeatherDisplay:10.37,2013-06-13 09:34:00,
2013-06-13 04:35:00,58.8,58.3,28.64,NNW,338,1.6,0.0,98,0.00,CLR,,0.00,WeatherDisplay:10.37,2013-06-13 09:35:00,
2013-06-13 04:36:00,58.8,58.3,28.64,NNW,338,2.3,2.3,98,0.00,CLR,,0.00,WeatherDisplay:10.37,2013-06-13 09:36:00,
2013-06-13 04:37:00,58.6,58.1,28.64,NW,315,1.6,1.6,98,0.00,CLR,,0.00,WeatherDisplay:10.37,2013-06-13 09:37:00,
2013-06-13 04:40:00,58.6,58.1,28.67,NW,315,1.2,0.0,98,0.00,CLR,,0.00,WeatherDisplay:10.37,2013-06-13 09:40:00,
2013-06-13 04:42:00,58.6,58.1,28.67,NW,315,0.0,0.0,98,0.00,CLR,,0.00,WeatherDisplay:10.37,2013-06-13 09:42:00,
2013-06-13 04:43:00,58.6,58.1,28.67,NW,315,0.0,0.0,98,0.00,CLR,,0.00,WeatherDisplay:10.37,2013-06-13 09:43:00,
2013-06-13 04:45:00,58.6,58.1,28.67,NW,315,0.0,0.0,98,0.00,CLR,,0.00,WeatherDisplay:10.37,2013-06-13 09:45:00,
2013-06-13 04:46:00,58.6,58.1,28.67,NW,315,0.0,0.0,98,0.00,CLR,,0.00,WeatherDisplay:10.37,2013-06-13 09:46:00,
2013-06-13 04:47:00,58.5,57.9,28.67,NNE,22,0.0,0.0,98,0.00,CLR,,0.00,WeatherDisplay:10.37,2013-06-13 09:47:00,
2013-06-13 04:48:00,58.5,57.9,28.67,NNE,22,0.0,0.0,98,0.00,CLR,,0.00,WeatherDisplay:10.37,2013-06-13 09:48:00,
2013-06-13 04:50:00,58.5,57.9,28.67,NNW,345,0.0,0.0,98,0.00,CLR,,0.00,WeatherDisplay:10.37,2013-06-13 09:50:00,
2013-06-13 04:51:00,58.5,57.9,28.67,North,0,0.0,0.0,98,0.00,CLR,,0.00,WeatherDisplay:10.37,2013-06-13 09:51:00,
2013-06-13 04:52:00,58.5,57.9,28.67,WNW,292,0.0,0.0,98,0.00,CLR,,0.00,WeatherDisplay:10.37,2013-06-13 09:52:00,
2013-06-13 04:53:00,58.6,58.1,28.67,NW,315,0.0,0.0,98,0.00,CLR,,0.00,WeatherDisplay:10.37,2013-06-13 09:53:00,
2013-06-13 04:55:00,58.6,58.1,28.67,NW,315,1.2,0.0,98,0.00,CLR,,0.00,WeatherDisplay:10.37,2013-06-13 09:55:00,
2013-06-13 04:56:00,58.6,58.1,28.67,NW,315,2.3,2.3,98,0.00,CLR,,0.00,WeatherDisplay:10.37,2013-06-13 09:56:00,
2013-06-13 04:57:00,58.8,58.3,28.67,WNW,292,3.5,3.5,98,0.00,CLR,,0.00,WeatherDisplay:10.37,2013-06-13 09:57:00,
2013-06-13 04:58:00,59.0,58.4,28.67,NW,315,4.0,4.0,98,0.00,CLR,,0.00,WeatherDisplay:10.37,2013-06-13 09:58:00,
2013-06-13 05:00:00,59.2,58.6,28.67,NW,315,2.3,2.3,98,0.00,CLR,,0.00,WeatherDisplay:10.37,2013-06-13 10:00:00,
2013-06-13 05:01:00,59.2,58.6,28.67,NW,315,2.6,2.6,98,0.00,CLR,,0.00,WeatherDisplay:10.37,2013-06-13 10:01:00,
2013-06-13 05:02:00,59.4,58.8,28.67,NW,315,2.4,2.4,98,0.00,CLR,,0.00,WeatherDisplay:10.37,2013-06-13 10:02:00,
2013-06-13 05:03:00,59.4,58.8,28.67,NW,315,2.3,2.4,98,0.00,CLR,,0.00,WeatherDisplay:10.37,2013-06-13 10:03:00,
2013-06-13 05:06:00,59.5,59.0,28.67,WNW,292,2.3,2.3,98,0.00,CLR,,0.00,WeatherDisplay:10.37,2013-06-13 10:06:00,
2013-06-13 05:08:00,59.5,59.0,28.67,WNW,292,2.3,2.3,98,0.00,CLR,,0.00,WeatherDisplay:10.37,2013-06-13 10:08:00,
2013-06-13 05:09:00,59.7,59.2,28.67,NW,315,2.3,2.3,98,0.00,CLR,,0.00,WeatherDisplay:10.37,2013-06-13 10:09:00,
2013-06-13 05:11:00,59.7,59.2,28.67,NNE,22,2.3,2.3,98,0.00,CLR,,0.00,WeatherDisplay:10.37,2013-06-13 10:11:00,
2013-06-13 05:13:00,59.7,59.2,28.67,NNW,338,2.3,2.6,98,0.00,CLR,,0.00,WeatherDisplay:10.37,2013-06-13 10:13:00,
2013-06-13 05:14:00,59.7,59.2,28.67,NW,315,3.5,3.5,98,0.00,CLR,,0.00,WeatherDisplay:10.37,2013-06-13 10:14:00,
2013-06-13 05:16:00,59.9,59.3,28.67,WNW,292,4.6,4.6,98,0.00,CLR,,0.00,WeatherDisplay:10.37,2013-06-13 10:16:00,
2013-06-13 05:17:00,59.9,59.3,28.67,NNW,338,2.9,2.9,98,0.00,CLR,,0.00,WeatherDisplay:10.37,2013-06-13 10:17:00,
2013-06-13 05:18:00,59.9,59.3,28.67,NNW,338,2.4,2.4,98,0.00,CLR,,0.00,WeatherDisplay:10.37,2013-06-13 10:18:00,
2013-06-13 05:19:00,59.9,59.3,28.67,NW,315,4.6,4.6,98,0.00,CLR,,0.00,WeatherDisplay:10.37,2013-06-13 10:19:00,
2013-06-13 05:21:00,59.9,59.3,28.67,NW,315,3.5,3.5,98,0.00,CLR,,0.00,WeatherDisplay:10.37,2013-06-13 10:21:00,
2013-06-13 05:22:00,59.9,59.3,28.67,NW,315,2.3,2.3,98,0.00,CLR,,0.00,WeatherDisplay:10.37,2013-06-13 10:22:00,
2013-06-13 05:23:00,59.7,59.2,28.67,WNW,292,1.2,0.0,98,0.00,CLR,,0.00,WeatherDisplay:10.37,2013-06-13 10:23:00,
2013-06-13 05:24:00,59.7,59.2,28.67,WNW,292,2.6,2.6,98,0.00,CLR,,0.00,WeatherDisplay:10.37,2013-06-13 10:24:00,
2013-06-13 05:27:00,59.7,59.2,28.67,NW,315,3.5,3.5,98,0.00,CLR,,0.00,WeatherDisplay:10.37,2013-06-13 10:27:00,
2013-06-13 05:28:00,59.7,59.2,28.67,West,270,2.3,2.3,98,0.00,CLR,,0.00,WeatherDisplay:10.37,2013-06-13 10:28:00,
2013-06-13 05:29:00,59.7,59.2,28.67,WNW,292,2.3,2.3,98,0.00,CLR,,0.00,WeatherDisplay:10.37,2013-06-13 10:29:00,
2013-06-13 05:32:00,59.7,59.2,28.67,NNW,338,3.5,3.5,98,0.00,CLR,,0.00,WeatherDisplay:10.37,2013-06-13 10:32:00,
2013-06-13 05:33:00,59.7,59.2,28.67,NW,315,2.6,2.6,98,0.00,CLR,,0.00,WeatherDisplay:10.37,2013-06-13 10:33:00,
2013-06-13 05:34:00,59.7,59.2,28.67,WNW,292,2.3,2.3,98,0.00,CLR,,0.00,WeatherDisplay:10.37,2013-06-13 10:34:00,
2013-06-13 05:37:00,59.5,59.0,28.67,NW,315,0.9,0.0,98,0.00,CLR,,0.00,WeatherDisplay:10.37,2013-06-13 10:37:00,
2013-06-13 05:39:00,59.4,58.8,28.67,NW,315,1.2,0.0,98,0.00,CLR,,0.00,WeatherDisplay:10.37,2013-06-13 10:39:00,
2013-06-13 05:40:00,59.4,58.8,28.67,NW,315,0.9,0.0,98,0.00,CLR,,0.00,WeatherDisplay:10.37,2013-06-13 10:40:00,
2013-06-13 05:42:00,59.4,58.8,28.67,WNW,292,2.3,2.3,98,0.00,CLR,,0.00,WeatherDisplay:10.37,2013-06-13 10:42:00,
2013-06-13 05:44:00,59.4,58.8,28.67,NNW,338,1.4,0.0,98,0.00,CLR,,0.00,WeatherDisplay:10.37,2013-06-13 10:44:00,
2013-06-13 05:45:00,59.2,58.6,28.67,NW,315,1.2,1.2,98,0.00,CLR,,0.00,WeatherDisplay:10.37,2013-06-13 10:45:00,
2013-06-13 05:48:00,59.2,58.6,28.67,NW,315,0.0,0.0,98,0.00,CLR,,0.00,WeatherDisplay:10.37,2013-06-13 10:48:00,
2013-06-13 05:49:00,59.2,58.6,28.67,NW,315,0.0,0.0,98,0.00,CLR,,0.00,WeatherDisplay:10.37,2013-06-13 10:49:00,
2013-06-13 05:50:00,59.2,58.6,28.67,NW,315,0.0,0.0,98,0.00,CLR,,0.00,WeatherDisplay:10.37,2013-06-13 10:50:00,
2013-06-13 05:53:00,59.2,58.6,28.67,West,270,1.2,0.0,98,0.00,CLR,,0.00,WeatherDisplay:10.37,2013-06-13 10:53:00,
2013-06-13 05:54:00,59.2,58.6,28.70,West,270,1.2,0.0,98,0.00,CLR,,0.00,WeatherDisplay:10.37,2013-06-13 10:54:00,
2013-06-13 05:55:00,59.2,58.6,28.68,WNW,298,0.0,2.0,98,0.00,CLR,,0.00,WeatherDisplay:10.37,2013-06-13 10:55:00,
2013-06-13 05:56:00,59.5,59.0,28.70,West,270,0.0,0.0,98,0.00,CLR,,0.00,WeatherDisplay:10.37,2013-06-13 10:56:00,
2013-06-13 05:59:00,60.3,59.7,28.70,West,270,0.0,0.0,98,0.00,CLR,,0.00,WeatherDisplay:10.37,2013-06-13 10:59:00,
2013-06-13 06:00:00,60.2,59.7,28.70,West,274,0.0,0.0,98,0.00,CLR,,0.00,WeatherDisplay:10.37,2013-06-13 11:00:00,
2013-06-13 06:01:00,60.6,60.1,28.70,West,270,0.0,0.0,98,0.00,CLR,,0.00,WeatherDisplay:10.37,2013-06-13 11:01:00,
2013-06-13 06:04:00,61.2,60.6,28.70,North,0,0.9,0.0,98,0.00,CLR,,0.00,WeatherDisplay:10.37,2013-06-13 11:04:00,
2013-06-13 06:05:00,61.0,60.4,28.70,West,266,0.0,1.0,98,0.00,CLR,,0.00,WeatherDisplay:10.37,2013-06-13 11:05:00,
2013-06-13 06:06:00,61.3,60.8,28.70,NNE,22,1.2,0.0,98,0.00,CLR,,0.00,WeatherDisplay:10.37,2013-06-13 11:06:00,
2013-06-13 06:10:00,62.2,61.7,28.70,NNE,22,0.0,0.0,98,0.00,CLR,,0.00,WeatherDisplay:10.37,2013-06-13 11:10:00,
2013-06-13 06:11:00,62.4,61.8,28.70,NNE,22,0.0,0.0,98,0.00,CLR,,0.00,WeatherDisplay:10.37,2013-06-13 11:11:00,
2013-06-13 06:15:00,63.1,62.6,28.70,North,0,1.2,0.0,98,0.00,CLR,,0.00,WeatherDisplay:10.37,2013-06-13 11:15:00,
2013-06-13 06:16:00,63.3,62.7,28.70,NW,315,0.0,0.0,98,0.00,CLR,,0.00,WeatherDisplay:10.37,2013-06-13 11:16:00,
2013-06-13 06:20:00,63.9,63.3,28.70,WSW,248,2.2,2.2,98,0.00,CLR,,0.00,WeatherDisplay:10.37,2013-06-13 11:20:00,
2013-06-13 06:22:00,64.0,63.5,28.70,NNW,338,2.3,0.0,98,0.00,CLR,,0.00,WeatherDisplay:10.37,2013-06-13 11:22:00,
2013-06-13 06:25:00,64.6,64.0,28.70,NNW,338,0.0,0.0,98,0.00,CLR,,0.00,WeatherDisplay:10.37,2013-06-13 11:25:00,
2013-06-13 06:26:00,64.8,64.2,28.70,NW,315,1.6,1.6,98,0.00,CLR,,0.00,WeatherDisplay:10.37,2013-06-13 11:26:00,
2013-06-13 06:27:00,64.9,64.4,28.70,NW,315,1.2,1.2,98,0.00,CLR,,0.00,WeatherDisplay:10.37,2013-06-13 11:27:00,
2013-06-13 06:30:00,65.7,65.1,28.70,WNW,292,1.2,0.0,98,0.00,CLR,,0.00,WeatherDisplay:10.37,2013-06-13 11:30:00,
2013-06-13 06:31:00,65.8,65.3,28.70,NW,315,0.0,0.0,98,0.00,CLR,,0.00,WeatherDisplay:10.37,2013-06-13 11:31:00,
2013-06-13 06:32:00,65.8,65.3,28.70,NNW,338,0.0,0.0,98,0.00,CLR,,0.00,WeatherDisplay:10.37,2013-06-13 11:32:00,
2013-06-13 06:35:00,66.2,65.0,28.70,NNW,338,2.3,2.3,96,0.00,CLR,,0.00,WeatherDisplay:10.37,2013-06-13 11:35:00,
2013-06-13 06:36:00,66.2,65.0,28.70,North,0,2.0,2.0,96,0.00,CLR,,0.00,WeatherDisplay:10.37,2013-06-13 11:36:00,
2013-06-13 06:37:00,66.2,64.7,28.70,North,0,2.9,2.9,95,0.00,CLR,,0.00,WeatherDisplay:10.37,2013-06-13 11:37:00,
2013-06-13 06:41:00,66.4,64.3,28.70,NW,315,2.9,0.0,93,0.00,CLR,,0.00,WeatherDisplay:10.37,2013-06-13 11:41:00,
2013-06-13 06:42:00,66.4,64.3,28.70,North,0,3.5,3.5,93,0.00,CLR,,0.00,WeatherDisplay:10.37,2013-06-13 11:42:00,
2013-06-13 06:43:00,66.6,64.5,28.70,NNW,338,3.5,3.5,93,0.00,CLR,,0.00,WeatherDisplay:10.37,2013-06-13 11:43:00,
2013-06-13 06:46:00,66.9,64.2,28.70,NNW,338,2.3,2.3,91,0.00,CLR,,0.00,WeatherDisplay:10.37,2013-06-13 11:46:00,
2013-06-13 06:47:00,66.9,64.2,28.70,NW,315,3.8,3.8,91,0.00,CLR,,0.00,WeatherDisplay:10.37,2013-06-13 11:47:00,
2013-06-13 06:48:00,66.7,61.7,28.70,NNW,338,4.6,4.6,84,0.00,CLR,,0.00,WeatherDisplay:10.37,2013-06-13 11:48:00,
2013-06-13 06:51:00,66.6,59.1,28.70,NW,315,6.9,6.9,77,0.00,CLR,,0.00,WeatherDisplay:10.37,2013-06-13 11:51:00,
2013-06-13 06:52:00,66.4,58.6,28.70,WNW,292,6.9,6.9,76,0.00,CLR,,0.00,WeatherDisplay:10.37,2013-06-13 11:52:00,
2013-06-13 06:53:00,66.6,59.1,28.70,NW,315,4.6,4.6,77,0.00,CLR,,0.00,WeatherDisplay:10.37,2013-06-13 11:53:00,
2013-06-13 06:56:00,66.4,57.8,28.73,NW,315,4.6,4.6,74,0.00,CLR,,0.00,WeatherDisplay:10.37,2013-06-13 11:56:00,
2013-06-13 06:57:00,66.6,58.4,28.73,NW,315,4.9,4.9,75,0.00,CLR,,0.00,WeatherDisplay:10.37,2013-06-13 11:57:00,
2013-06-13 06:58:00,66.6,58.8,28.73,NW,315,3.5,3.5,76,0.00,CLR,,0.00,WeatherDisplay:10.37,2013-06-13 11:58:00,
2013-06-13 07:01:00,66.7,57.8,28.73,North,0,6.0,6.0,73,0.00,CLR,,0.00,WeatherDisplay:10.37,2013-06-13 12:01:00,
2013-06-13 07:02:00,66.7,57.8,28.73,NW,315,5.8,5.8,73,0.00,CLR,,0.00,WeatherDisplay:10.37,2013-06-13 12:02:00,
2013-06-13 07:03:00,66.7,58.2,28.73,NNW,338,4.6,4.6,74,0.00,CLR,,0.00,WeatherDisplay:10.37,2013-06-13 12:03:00,
2013-06-13 07:04:00,66.9,58.4,28.73,WNW,292,4.6,4.6,74,0.00,CLR,,0.00,WeatherDisplay:10.37,2013-06-13 12:04:00,
2013-06-13 07:06:00,66.9,57.2,28.73,NW,315,5.8,5.8,71,0.00,CLR,,0.00,WeatherDisplay:10.37,2013-06-13 12:06:00,
2013-06-13 07:07:00,66.9,57.2,28.73,North,0,5.8,5.8,71,0.00,CLR,,0.00,WeatherDisplay:10.37,2013-06-13 12:07:00,
2013-06-13 07:08:00,67.1,57.8,28.73,NW,315,4.6,4.6,72,0.00,CLR,,0.00,WeatherDisplay:10.37,2013-06-13 12:08:00,
2013-06-13 07:09:00,67.1,57.8,28.73,NNE,22,4.0,4.0,72,0.00,CLR,,0.00,WeatherDisplay:10.37,2013-06-13 12:09:00,
2013-06-13 07:11:00,67.3,57.2,28.73,NNE,22,4.9,4.9,70,0.00,CLR,,0.00,WeatherDisplay:10.37,2013-06-13 12:11:00,
2013-06-13 07:12:00,67.3,57.2,28.73,WNW,292,5.8,5.8,70,0.00,CLR,,0.00,WeatherDisplay:10.37,2013-06-13 12:12:00,
2013-06-13 07:13:00,67.1,56.6,28.73,WNW,292,5.9,5.9,69,0.00,CLR,,0.00,WeatherDisplay:10.37,2013-06-13 12:13:00,
2013-06-13 07:14:00,67.3,57.2,28.73,NW,315,5.8,5.8,70,0.00,CLR,,0.00,WeatherDisplay:10.37,2013-06-13 12:14:00,
2013-06-13 07:17:00,67.5,57.3,28.73,North,0,4.6,4.6,70,0.00,CLR,,0.00,WeatherDisplay:10.37,2013-06-13 12:17:00,
2013-06-13 07:18:00,67.5,57.3,28.73,NNW,338,6.0,6.0,70,0.00,CLR,,0.00,WeatherDisplay:10.37,2013-06-13 12:18:00,
2013-06-13 07:19:00,67.6,57.5,28.73,NW,315,5.8,5.8,70,0.00,CLR,,0.00,WeatherDisplay:10.37,2013-06-13 12:19:00,
2013-06-13 07:22:00,67.5,56.5,28.73,North,0,5.8,5.8,68,0.00,CLR,,0.00,WeatherDisplay:10.37,2013-06-13 12:22:00,
2013-06-13 07:23:00,67.8,57.3,28.73,North,0,4.6,4.6,69,0.00,CLR,,0.00,WeatherDisplay:10.37,2013-06-13 12:23:00,
2013-06-13 07:25:00,67.8,57.3,28.70,NNW,338,4.6,4.6,69,0.00,CLR,,0.00,WeatherDisplay:10.37,2013-06-13 12:25:00,
2013-06-13 07:27:00,68.0,56.6,28.70,North,0,6.9,6.9,67,0.00,CLR,,0.00,WeatherDisplay:10.37,2013-06-13 12:27:00,
2013-06-13 07:28:00,68.2,57.2,28.70,North,0,5.8,5.8,68,0.00,CLR,,0.00,WeatherDisplay:10.37,2013-06-13 12:28:00,
2013-06-13 07:30:00,68.5,57.6,28.70,North,0,6.0,6.0,68,0.00,CLR,,0.00,WeatherDisplay:10.37,2013-06-13 12:30:00,
2013-06-13 07:32:00,68.4,56.1,28.70,NNW,338,7.6,7.6,65,0.00,CLR,,0.00,WeatherDisplay:10.37,2013-06-13 12:32:00,
2013-06-13 07:33:00,68.4,56.1,28.70,NNW,338,4.7,4.9,65,0.00,CLR,,0.00,WeatherDisplay:10.37,2013-06-13 12:33:00,
2013-06-13 07:35:00,68.4,55.7,28.70,NW,315,5.8,5.8,64,0.00,CLR,,0.00,WeatherDisplay:10.37,2013-06-13 12:35:00,
2013-06-13 07:37:00,68.4,55.7,28.70,NNE,22,6.9,6.9,64,0.00,CLR,,0.00,WeatherDisplay:10.37,2013-06-13 12:37:00,
2013-06-13 07:38:00,68.2,55.1,28.70,North,0,5.9,5.9,63,0.00,CLR,,0.00,WeatherDisplay:10.37,2013-06-13 12:38:00,
2013-06-13 07:39:00,68.2,55.1,28.70,NNE,22,5.8,5.8,63,0.00,CLR,,0.00,WeatherDisplay:10.37,2013-06-13 12:39:00,
2013-06-13 07:40:00,68.2,55.5,28.73,NNE,22,5.8,5.8,64,0.00,CLR,,0.00,WeatherDisplay:10.37,2013-06-13 12:40:00,
2013-06-13 07:42:00,68.0,54.5,28.73,NW,315,9.2,9.2,62,0.00,CLR,,0.00,WeatherDisplay:10.37,2013-06-13 12:42:00,
2013-06-13 07:43:00,68.2,55.1,28.73,NNW,338,9.2,9.2,63,0.00,CLR,,0.00,WeatherDisplay:10.37,2013-06-13 12:43:00,
2013-06-13 07:44:00,68.2,55.1,28.73,NNW,338,6.9,6.9,63,0.00,CLR,,0.00,WeatherDisplay:10.37,2013-06-13 12:44:00,
2013-06-13 07:47:00,68.5,55.4,28.73,NNW,338,9.2,9.2,63,0.00,CLR,,0.00,WeatherDisplay:10.37,2013-06-13 12:47:00,
2013-06-13 07:48:00,68.4,54.8,28.73,North,0,9.7,9.7,62,0.00,CLR,,0.00,WeatherDisplay:10.37,2013-06-13 12:48:00,
2013-06-13 07:49:00,68.4,54.8,28.73,North,0,9.7,9.7,62,0.00,CLR,,0.00,WeatherDisplay:10.37,2013-06-13 12:49:00,
2013-06-13 08:35:00,75.4,50.0,28.79,NNE,18,0.0,6.0,41,0.00,CLR,,0.00,WeatherDisplay:10.37,2013-06-13 13:35:00,
2013-06-13 08:40:00,74.8,49.6,28.79,NNE,33,1.0,2.0,41,0.00,CLR,,0.00,WeatherDisplay:10.37,2013-06-13 13:40:00,
2013-06-13 08:45:00,74.7,50.0,28.79,NNE,18,0.0,3.0,42,0.00,CLR,,0.00,WeatherDisplay:10.37,2013-06-13 13:45:00,
2013-06-13 08:50:00,74.3,49.7,28.79,North,4,0.0,1.0,42,0.00,CLR,,0.00,WeatherDisplay:10.37,2013-06-13 13:50:00,
2013-06-13 08:55:00,73.9,49.4,28.79,North,0,0.0,0.0,42,0.00,CLR,,0.00,WeatherDisplay:10.37,2013-06-13 13:55:00,
2013-06-13 16:33:00,68.4,54.8,28.73,North,0,9.7,9.7,62,0.00,CLR,,0.00,WeatherDisplay:10.37,2013-06-13 21:33:00,
2013-06-13 16:38:00,68.4,54.8,28.73,North,0,9.7,9.7,62,0.00,CLR,,0.00,WeatherDisplay:10.37,2013-06-13 21:38:00,
2013-06-13 16:45:00,68.4,54.8,28.73,North,0,9.7,9.7,62,0.00,CLR,,0.00,WeatherDisplay:10.37,2013-06-13 21:45:00,
2013-06-13 19:55:00,73.9,49.4,28.76,NNW,338,9.2,0.0,42,0.00,CLR,,0.00,WeatherDisplay:10.37,2013-06-14 00:55:00,
2013-06-13 19:56:00,73.8,49.2,28.76,NNW,338,9.2,0.0,42,0.00,CLR,,0.00,WeatherDisplay:10.37,2013-06-14 00:56:00,
2013-06-13 20:01:00,73.0,48.6,28.76,NNW,338,0.0,0.0,42,0.00,CLR,,0.00,WeatherDisplay:10.37,2013-06-14 01:01:00,
2013-06-13 20:06:00,72.7,49.5,28.76,NNW,338,0.0,0.0,44,0.00,CLR,,0.00,WeatherDisplay:10.37,2013-06-14 01:06:00,
2013-06-13 20:07:00,72.7,49.5,28.76,NNW,338,0.0,0.0,44,0.00,CLR,,0.00,WeatherDisplay:10.37,2013-06-14 01:07:00,
2013-06-13 20:08:00,72.7,49.5,28.76,NNW,338,0.0,0.0,44,0.00,CLR,,0.00,WeatherDisplay:10.37,2013-06-14 01:08:00,
2013-06-13 20:12:00,72.3,49.8,28.79,NNW,338,0.0,0.0,45,0.00,CLR,,0.00,WeatherDisplay:10.37,2013-06-14 01:12:00,
2013-06-13 20:13:00,72.1,49.6,28.79,NNW,338,0.0,0.0,45,0.00,CLR,,0.00,WeatherDisplay:10.37,2013-06-14 01:13:00,
2013-06-13 20:17:00,71.8,50.5,28.79,NNW,338,0.0,0.0,47,0.00,CLR,,0.00,WeatherDisplay:10.37,2013-06-14 01:17:00,
2013-06-13 20:18:00,71.6,50.3,28.79,NNW,338,0.0,0.0,47,0.00,CLR,,0.00,WeatherDisplay:10.37,2013-06-14 01:18:00,
2013-06-13 20:22:00,70.7,51.1,28.79,NNW,338,0.0,0.0,50,0.00,CLR,,0.00,WeatherDisplay:10.37,2013-06-14 01:22:00,
2013-06-13 20:23:00,70.7,51.1,28.79,NNW,338,2.2,0.0,50,0.00,CLR,,0.00,WeatherDisplay:10.37,2013-06-14 01:23:00,
2013-06-13 20:27:00,69.4,51.0,28.79,NW,315,1.2,0.0,52,0.00,CLR,,0.00,WeatherDisplay:10.37,2013-06-14 01:27:00,
2013-06-13 20:28:00,69.4,51.0,28.79,NW,315,0.0,0.0,52,0.00,CLR,,0.00,WeatherDisplay:10.37,2013-06-14 01:28:00,
2013-06-13 20:30:00,69.3,50.4,28.79,NW,321,0.0,2.0,51,0.00,CLR,,0.00,WeatherDisplay:10.37,2013-06-14 01:30:00,
2013-06-13 20:33:00,68.7,50.9,28.79,NW,315,0.0,0.0,53,0.00,CLR,,0.00,WeatherDisplay:10.37,2013-06-14 01:33:00,
2013-06-13 20:34:00,68.7,50.9,28.79,NW,315,0.0,0.0,53,0.00,CLR,,0.00,WeatherDisplay:10.37,2013-06-14 01:34:00,
2013-06-13 20:35:00,68.5,50.7,28.79,NW,315,0.0,0.0,53,0.00,CLR,,0.00,WeatherDisplay:10.37,2013-06-14 01:35:00,
2013-06-13 20:39:00,68.0,50.7,28.79,WNW,292,1.4,1.4,54,0.00,CLR,,0.00,WeatherDisplay:10.37,2013-06-14 01:39:00,
2013-06-13 20:40:00,68.0,51.2,28.79,NW,310,1.0,2.0,55,0.00,CLR,,0.00,WeatherDisplay:10.37,2013-06-14 01:40:00,
2013-06-13 20:44:00,67.3,51.5,28.79,WNW,292,1.2,0.0,57,0.00,CLR,,0.00,WeatherDisplay:10.37,2013-06-14 01:44:00,
2013-06-13 20:45:00,67.3,52.0,28.79,West,270,1.2,0.0,58,0.00,CLR,,0.00,WeatherDisplay:10.37,2013-06-14 01:45:00,
2013-06-13 20:46:00,67.1,52.7,28.79,WNW,292,1.2,0.0,60,0.00,CLR,,0.00,WeatherDisplay:10.37,2013-06-14 01:46:00,
2013-06-13 20:49:00,66.6,52.7,28.79,NNW,338,0.0,0.0,61,0.00,CLR,,0.00,WeatherDisplay:10.37,2013-06-14 01:49:00,
2013-06-13 20:50:00,66.6,52.2,28.79,WNW,292,0.0,0.0,60,0.00,CLR,,0.00,WeatherDisplay:10.37,2013-06-14 01:50:00,
2013-06-13 20:51:00,66.4,52.5,28.79,West,270,2.3,0.0,61,0.00,CLR,,0.00,WeatherDisplay:10.37,2013-06-14 01:51:00,
2013-06-13 20:54:00,66.0,53.5,28.79,WNW,292,2.3,2.3,64,0.00,CLR,,0.00,WeatherDisplay:10.37,2013-06-14 01:54:00,
2013-06-13 20:55:00,65.8,53.3,28.79,WNW,292,1.2,0.0,64,0.00,CLR,,0.00,WeatherDisplay:10.37,2013-06-14 01:55:00,
2013-06-13 20:56:00,65.8,53.3,28.79,WNW,292,0.0,0.0,64,0.00,CLR,,0.00,WeatherDisplay:10.37,2013-06-14 01:56:00,
2013-06-13 21:00:00,65.3,53.2,28.79,NW,315,0.0,0.0,65,0.00,CLR,,0.00,WeatherDisplay:10.37,2013-06-14 02:00:00,
2013-06-13 21:01:00,65.3,53.2,28.79,NW,315,0.0,0.0,65,0.00,CLR,,0.00,WeatherDisplay:10.37,2013-06-14 02:01:00,
2013-06-13 21:05:00,64.6,53.0,28.79,NNW,338,0.0,0.0,66,0.00,CLR,,0.00,WeatherDisplay:10.37,2013-06-14 02:05:00,
2013-06-13 21:06:00,64.6,53.0,28.79,NW,315,1.4,0.0,66,0.00,CLR,,0.00,WeatherDisplay:10.37,2013-06-14 02:06:00,
2013-06-13 21:07:00,64.4,52.8,28.79,NW,315,2.3,2.3,66,0.00,CLR,,0.00,WeatherDisplay:10.37,2013-06-14 02:07:00,
2013-06-13 21:10:00,64.0,53.3,28.79,NW,315,2.0,2.0,68,0.00,CLR,,0.00,WeatherDisplay:10.37,2013-06-14 02:10:00,
2013-06-13 21:11:00,63.9,53.5,28.79,NW,315,2.3,2.3,69,0.00,CLR,,0.00,WeatherDisplay:10.37,2013-06-14 02:11:00,
2013-06-13 21:12:00,63.9,53.5,28.79,NW,315,1.2,0.0,69,0.00,CLR,,0.00,WeatherDisplay:10.37,2013-06-14 02:12:00,
2013-06-13 21:13:00,63.7,53.3,28.79,NW,315,0.0,0.0,69,0.00,CLR,,0.00,WeatherDisplay:10.37,2013-06-14 02:13:00,
2013-06-13 21:15:00,63.5,53.5,28.79,NW,315,0.0,0.0,70,0.00,CLR,,0.00,WeatherDisplay:10.37,2013-06-14 02:15:00,
2013-06-13 21:16:00,63.5,53.5,28.79,NW,315,0.0,0.0,70,0.00,CLR,,0.00,WeatherDisplay:10.37,2013-06-14 02:16:00,
2013-06-13 21:17:00,63.3,53.4,28.79,NW,315,0.0,0.0,70,0.00,CLR,,0.00,WeatherDisplay:10.37,2013-06-14 02:17:00,
2013-06-13 21:18:00,63.3,53.4,28.79,WNW,292,0.0,0.0,70,0.00,CLR,,0.00,WeatherDisplay:10.37,2013-06-14 02:18:00,
2013-06-13 21:20:00,63.1,53.6,28.79,NW,315,2.0,2.0,71,0.00,CLR,,0.00,WeatherDisplay:10.37,2013-06-14 02:20:00,
2013-06-13 21:22:00,63.1,54.0,28.79,North,0,2.3,2.3,72,0.00,CLR,,0.00,WeatherDisplay:10.37,2013-06-14 02:22:00,
2013-06-13 21:23:00,63.1,54.0,28.79,NW,315,1.2,0.0,72,0.00,CLR,,0.00,WeatherDisplay:10.37,2013-06-14 02:23:00,
2013-06-13 21:26:00,62.8,53.6,28.82,NW,315,1.2,0.0,72,0.00,CLR,,0.00,WeatherDisplay:10.37,2013-06-14 02:26:00,
2013-06-13 21:27:00,62.8,53.6,28.82,NW,315,0.0,0.0,72,0.00,CLR,,0.00,WeatherDisplay:10.37,2013-06-14 02:27:00,
2013-06-13 21:28:00,62.6,53.4,28.82,NW,315,0.0,0.0,72,0.00,CLR,,0.00,WeatherDisplay:10.37,2013-06-14 02:28:00,
2013-06-13 21:29:00,62.6,53.4,28.82,NW,315,0.0,0.0,72,0.00,CLR,,0.00,WeatherDisplay:10.37,2013-06-14 02:29:00,
2013-06-13 21:31:00,62.4,53.6,28.82,NW,315,0.0,0.0,73,0.00,CLR,,0.00,WeatherDisplay:10.37,2013-06-14 02:31:00,
2013-06-13 21:32:00,62.4,53.6,28.82,NW,315,0.0,0.0,73,0.00,CLR,,0.00,WeatherDisplay:10.37,2013-06-14 02:32:00,
2013-06-13 21:33:00,62.4,53.6,28.82,NW,315,0.0,0.0,73,0.00,CLR,,0.00,WeatherDisplay:10.37,2013-06-14 02:33:00,
2013-06-13 21:34:00,62.2,53.5,28.82,NW,315,0.0,0.0,73,0.00,CLR,,0.00,WeatherDisplay:10.37,2013-06-14 02:34:00,
2013-06-13 21:35:00,62.2,53.5,28.82,NW,315,0.0,0.0,73,0.00,CLR,,0.00,WeatherDisplay:10.37,2013-06-14 02:35:00,
2013-06-13 21:36:00,62.2,53.5,28.82,West,270,0.0,0.0,73,0.00,CLR,,0.00,WeatherDisplay:10.37,2013-06-14 02:36:00,
2013-06-13 21:37:00,62.2,53.8,28.82,West,270,0.0,0.0,74,0.00,CLR,,0.00,WeatherDisplay:10.37,2013-06-14 02:37:00,
2013-06-13 21:38:00,62.2,53.8,28.82,West,270,0.0,0.0,74,0.00,CLR,,0.00,WeatherDisplay:10.37,2013-06-14 02:38:00,
2013-06-13 21:39:00,62.1,53.3,28.82,West,270,0.0,0.0,73,0.00,CLR,,0.00,WeatherDisplay:10.37,2013-06-14 02:39:00,
2013-06-13 21:40:00,62.1,53.7,28.85,West,270,0.0,0.0,74,0.00,CLR,,0.00,WeatherDisplay:10.37,2013-06-14 02:40:00,
2013-06-13 21:42:00,61.9,53.1,28.85,WNW,292,0.0,0.0,73,0.00,CLR,,0.00,WeatherDisplay:10.37,2013-06-14 02:42:00,
2013-06-13 21:43:00,61.9,53.5,28.85,WNW,292,0.0,0.0,74,0.00,CLR,,0.00,WeatherDisplay:10.37,2013-06-14 02:43:00,
2013-06-13 21:44:00,61.7,53.3,28.85,WNW,292,0.0,0.0,74,0.00,CLR,,0.00,WeatherDisplay:10.37,2013-06-14 02:44:00,
2013-06-13 21:45:00,61.7,53.3,28.85,WNW,292,0.0,0.0,74,0.00,CLR,,0.00,WeatherDisplay:10.37,2013-06-14 02:45:00,
2013-06-13 21:47:00,61.5,53.2,28.85,WNW,292,0.0,0.0,74,0.00,CLR,,0.00,WeatherDisplay:10.37,2013-06-14 02:47:00,
2013-06-13 21:48:00,61.5,53.2,28.85,WNW,292,0.0,0.0,74,0.00,CLR,,0.00,WeatherDisplay:10.37,2013-06-14 02:48:00,
2013-06-13 21:50:00,61.3,53.3,28.85,WNW,292,2.6,2.6,75,0.00,CLR,,0.00,WeatherDisplay:10.37,2013-06-14 02:50:00,
2013-06-13 21:52:00,61.2,53.2,28.85,NW,315,2.0,0.0,75,0.00,CLR,,0.00,WeatherDisplay:10.37,2013-06-14 02:52:00,
2013-06-13 21:53:00,61.2,53.2,28.85,WNW,292,2.4,2.4,75,0.00,CLR,,0.00,WeatherDisplay:10.37,2013-06-14 02:53:00,
2013-06-13 21:55:00,61.0,53.7,28.85,NW,315,0.9,0.0,77,0.00,CLR,,0.00,WeatherDisplay:10.37,2013-06-14 02:55:00,
2013-06-13 21:56:00,61.0,53.7,28.85,NW,315,1.2,0.0,77,0.00,CLR,,0.00,WeatherDisplay:10.37,2013-06-14 02:56:00,
2013-06-13 21:57:00,60.8,53.9,28.85,NW,315,0.0,0.0,78,0.00,CLR,,0.00,WeatherDisplay:10.37,2013-06-14 02:57:00,
2013-06-13 21:58:00,60.8,53.9,28.85,NW,315,0.0,0.0,78,0.00,CLR,,0.00,WeatherDisplay:10.37,2013-06-14 02:58:00,
2013-06-13 22:00:00,60.6,53.7,28.85,NW,315,0.0,0.0,78,0.00,CLR,,0.00,WeatherDisplay:10.37,2013-06-14 03:00:00,
2013-06-13 22:01:00,60.6,53.7,28.85,NW,315,0.0,0.0,78,0.00,CLR,,0.00,WeatherDisplay:10.37,2013-06-14 03:01:00,
2013-06-13 22:03:00,60.4,53.9,28.85,NW,315,0.0,0.0,79,0.00,CLR,,0.00,WeatherDisplay:10.37,2013-06-14 03:03:00,
2013-06-13 22:06:00,60.3,53.7,28.85,WNW,292,0.0,0.0,79,0.00,CLR,,0.00,WeatherDisplay:10.37,2013-06-14 03:06:00,
2013-06-13 22:08:00,60.3,53.7,28.85,NW,315,2.3,2.3,79,0.00,CLR,,0.00,WeatherDisplay:10.37,2013-06-14 03:08:00,
2013-06-13 22:10:00,60.3,54.1,28.85,NW,315,1.2,1.2,80,0.00,CLR,,0.00,WeatherDisplay:10.37,2013-06-14 03:10:00,
2013-06-13 22:11:00,60.1,53.9,28.85,NW,315,0.0,0.0,80,0.00,CLR,,0.00,WeatherDisplay:10.37,2013-06-14 03:11:00,
2013-06-13 22:12:00,60.1,53.9,28.85,NW,315,0.0,0.0,80,0.00,CLR,,0.00,WeatherDisplay:10.37,2013-06-14 03:12:00,
2013-06-13 22:14:00,60.1,53.9,28.85,NW,315,0.0,0.0,80,0.00,CLR,,0.00,WeatherDisplay:10.37,2013-06-14 03:14:00,
2013-06-13 22:16:00,59.9,54.1,28.85,NW,315,0.0,0.0,81,0.00,CLR,,0.00,WeatherDisplay:10.37,2013-06-14 03:16:00,
2013-06-13 22:17:00,59.9,54.1,28.85,NW,315,0.0,0.0,81,0.00,CLR,,0.00,WeatherDisplay:10.37,2013-06-14 03:17:00,
2013-06-13 22:20:00,59.7,53.9,28.85,NW,315,0.0,0.0,81,0.00,CLR,,0.00,WeatherDisplay:10.37,2013-06-14 03:20:00,
2013-06-13 22:21:00,59.7,53.9,28.85,NW,315,0.0,0.0,81,0.00,CLR,,0.00,WeatherDisplay:10.37,2013-06-14 03:21:00,
2013-06-13 22:22:00,59.7,53.9,28.85,NW,315,0.0,0.0,81,0.00,CLR,,0.00,WeatherDisplay:10.37,2013-06-14 03:22:00,
2013-06-13 22:25:00,59.4,53.5,28.85,NW,315,0.0,0.0,81,0.00,CLR,,0.00,WeatherDisplay:10.37,2013-06-14 03:25:00,
2013-06-13 22:26:00,59.4,53.5,28.85,NW,315,0.0,0.0,81,0.00,CLR,,0.00,WeatherDisplay:10.37,2013-06-14 03:26:00,
2013-06-13 22:27:00,59.4,53.5,28.85,NW,315,0.0,0.0,81,0.00,CLR,,0.00,WeatherDisplay:10.37,2013-06-14 03:27:00,
2013-06-13 22:28:00,59.4,53.5,28.85,NW,315,0.0,0.0,81,0.00,CLR,,0.00,WeatherDisplay:10.37,2013-06-14 03:28:00,
2013-06-13 22:30:00,59.2,53.4,28.85,NW,315,0.0,0.0,81,0.00,CLR,,0.00,WeatherDisplay:10.37,2013-06-14 03:30:00,
2013-06-13 22:31:00,59.2,53.4,28.85,NW,315,0.0,0.0,81,0.00,CLR,,0.00,WeatherDisplay:10.37,2013-06-14 03:31:00,
2013-06-13 22:32:00,59.2,53.4,28.85,NW,315,0.0,0.0,81,0.00,CLR,,0.00,WeatherDisplay:10.37,2013-06-14 03:32:00,
2013-06-13 22:34:00,59.0,53.2,28.85,NW,315,0.0,0.0,81,0.00,CLR,,0.00,WeatherDisplay:10.37,2013-06-14 03:34:00,
2013-06-13 22:35:00,59.0,53.2,28.85,NW,315,0.0,0.0,81,0.00,CLR,,0.00,WeatherDisplay:10.37,2013-06-14 03:35:00,
2013-06-13 22:36:00,59.0,53.2,28.85,NW,315,0.0,0.0,81,0.00,CLR,,0.00,WeatherDisplay:10.37,2013-06-14 03:36:00,
2013-06-13 22:38:00,59.0,53.2,28.85,West,270,0.0,0.0,81,0.00,CLR,,0.00,WeatherDisplay:10.37,2013-06-14 03:38:00,
2013-06-13 22:40:00,58.8,53.3,28.85,WNW,292,0.0,0.0,82,0.00,CLR,,0.00,WeatherDisplay:10.37,2013-06-14 03:40:00,
2013-06-13 22:41:00,58.8,53.3,28.85,WNW,292,0.0,0.0,82,0.00,CLR,,0.00,WeatherDisplay:10.37,2013-06-14 03:41:00,
2013-06-13 22:43:00,58.8,53.7,28.85,NW,315,0.0,0.0,83,0.00,CLR,,0.00,WeatherDisplay:10.37,2013-06-14 03:43:00,
2013-06-13 22:44:00,58.8,53.7,28.85,NW,315,0.0,0.0,83,0.00,CLR,,0.00,WeatherDisplay:10.37,2013-06-14 03:44:00,
2013-06-13 22:45:00,58.6,53.5,28.85,NW,315,0.0,0.0,83,0.00,CLR,,0.00,WeatherDisplay:10.37,2013-06-14 03:45:00,
2013-06-13 22:46:00,58.6,53.5,28.85,West,270,0.0,0.0,83,0.00,CLR,,0.00,WeatherDisplay:10.37,2013-06-14 03:46:00,
2013-06-13 22:48:00,58.6,53.5,28.85,West,270,0.0,0.0,83,0.00,CLR,,0.00,WeatherDisplay:10.37,2013-06-14 03:48:00,
2013-06-13 22:49:00,58.6,53.5,28.85,West,270,0.0,0.0,83,0.00,CLR,,0.00,WeatherDisplay:10.37,2013-06-14 03:49:00,
2013-06-13 22:51:00,58.6,53.8,28.85,West,270,0.0,0.0,84,0.00,CLR,,0.00,WeatherDisplay:10.37,2013-06-14 03:51:00,
2013-06-13 22:52:00,58.5,53.6,28.85,West,270,0.0,0.0,84,0.00,CLR,,0.00,WeatherDisplay:10.37,2013-06-14 03:52:00,
2013-06-13 22:53:00,58.5,53.6,28.85,West,270,0.0,0.0,84,0.00,CLR,,0.00,WeatherDisplay:10.37,2013-06-14 03:53:00,
2013-06-13 22:54:00,58.5,53.6,28.85,West,270,0.0,0.0,84,0.00,CLR,,0.00,WeatherDisplay:10.37,2013-06-14 03:54:00,
2013-06-13 22:57:00,58.3,53.5,28.85,WNW,292,0.0,0.0,84,0.00,CLR,,0.00,WeatherDisplay:10.37,2013-06-14 03:57:00,
2013-06-13 22:58:00,58.3,53.5,28.85,WNW,292,0.0,0.0,84,0.00,CLR,,0.00,WeatherDisplay:10.37,2013-06-14 03:58:00,
2013-06-13 22:59:00,58.3,53.5,28.85,WNW,292,0.0,0.0,84,0.00,CLR,,0.00,WeatherDisplay:10.37,2013-06-14 03:59:00,
2013-06-13 23:01:00,58.3,53.5,28.85,WNW,292,0.0,0.0,84,0.00,CLR,,0.00,WeatherDisplay:10.37,2013-06-14 04:01:00,
2013-06-13 23:02:00,58.1,53.3,28.85,WNW,292,0.0,0.0,84,0.00,CLR,,0.00,WeatherDisplay:10.37,2013-06-14 04:02:00,
2013-06-13 23:06:00,58.1,53.6,28.85,WNW,292,0.0,0.0,85,0.00,CLR,,0.00,WeatherDisplay:10.37,2013-06-14 04:06:00,
2013-06-13 23:07:00,58.1,53.6,28.85,WNW,292,0.0,0.0,85,0.00,CLR,,0.00,WeatherDisplay:10.37,2013-06-14 04:07:00,
2013-06-13 23:11:00,57.9,53.4,28.82,WNW,292,0.0,0.0,85,0.00,CLR,,0.00,WeatherDisplay:10.37,2013-06-14 04:11:00,
2013-06-13 23:12:00,57.9,53.4,28.82,WNW,292,0.0,0.0,85,0.00,CLR,,0.00,WeatherDisplay:10.37,2013-06-14 04:12:00,
2013-06-13 23:13:00,57.7,53.3,28.82,WNW,292,0.0,0.0,85,0.00,CLR,,0.00,WeatherDisplay:10.37,2013-06-14 04:13:00,
2013-06-13 23:16:00,57.7,53.3,28.82,WNW,292,0.0,0.0,85,0.00,CLR,,0.00,WeatherDisplay:10.37,2013-06-14 04:16:00,
2013-06-13 23:17:00,57.7,53.3,28.82,WNW,292,0.0,0.0,85,0.00,CLR,,0.00,WeatherDisplay:10.37,2013-06-14 04:17:00,
2013-06-13 23:18:00,57.6,53.1,28.82,WNW,292,0.0,0.0,85,0.00,CLR,,0.00,WeatherDisplay:10.37,2013-06-14 04:18:00,
2013-06-13 23:19:00,57.6,53.1,28.82,WNW,292,0.0,0.0,85,0.00,CLR,,0.00,WeatherDisplay:10.37,2013-06-14 04:19:00,
2013-06-13 23:21:00,57.6,53.1,28.82,WNW,292,0.0,0.0,85,0.00,CLR,,0.00,WeatherDisplay:10.37,2013-06-14 04:21:00,
2013-06-13 23:22:00,57.6,53.1,28.82,WNW,292,0.0,0.0,85,0.00,CLR,,0.00,WeatherDisplay:10.37,2013-06-14 04:22:00,
2013-06-13 23:23:00,57.6,53.1,28.82,WNW,292,0.0,0.0,85,0.00,CLR,,0.00,WeatherDisplay:10.37,2013-06-14 04:23:00,
2013-06-13 23:24:00,57.4,52.9,28.82,NW,315,0.0,0.0,85,0.00,CLR,,0.00,WeatherDisplay:10.37,2013-06-14 04:24:00,
2013-06-13 23:26:00,57.4,53.2,28.85,NW,315,0.0,0.0,86,0.00,CLR,,0.00,WeatherDisplay:10.37,2013-06-14 04:26:00,
2013-06-13 23:27:00,57.2,53.0,28.85,NW,315,0.0,0.0,86,0.00,CLR,,0.00,WeatherDisplay:10.37,2013-06-14 04:27:00,
2013-06-13 23:28:00,57.2,53.0,28.85,NW,315,0.0,0.0,86,0.00,CLR,,0.00,WeatherDisplay:10.37,2013-06-14 04:28:00,
2013-06-13 23:29:00,57.2,53.0,28.85,NW,315,0.0,0.0,86,0.00,CLR,,0.00,WeatherDisplay:10.37,2013-06-14 04:29:00,
2013-06-13 23:32:00,57.2,53.4,28.85,NW,315,0.0,0.0,87,0.00,CLR,,0.00,WeatherDisplay:10.37,2013-06-14 04:32:00,
2013-06-13 23:33:00,57.0,53.2,28.85,NW,315,0.0,0.0,87,0.00,CLR,,0.00,WeatherDisplay:10.37,2013-06-14 04:33:00,
2013-06-13 23:34:00,57.0,53.2,28.85,NW,315,0.0,0.0,87,0.00,CLR,,0.00,WeatherDisplay:10.37,2013-06-14 04:34:00,
2013-06-13 23:37:00,57.0,53.2,28.85,WNW,292,0.0,0.0,87,0.00,CLR,,0.00,WeatherDisplay:10.37,2013-06-14 04:37:00,
2013-06-13 23:38:00,57.0,53.2,28.85,West,270,1.2,0.0,87,0.00,CLR,,0.00,WeatherDisplay:10.37,2013-06-14 04:38:00,
2013-06-13 23:39:00,57.0,53.2,28.85,West,270,1.2,0.0,87,0.00,CLR,,0.00,WeatherDisplay:10.37,2013-06-14 04:39:00,
2013-06-13 23:40:00,56.9,53.1,28.85,WNW,295,0.0,1.0,87,0.00,CLR,,0.00,WeatherDisplay:10.37,2013-06-14 04:40:00,
2013-06-13 23:42:00,56.8,53.3,28.85,West,270,0.0,0.0,88,0.00,CLR,,0.00,WeatherDisplay:10.37,2013-06-14 04:42:00,
2013-06-13 23:44:00,56.8,53.3,28.85,WNW,292,0.0,0.0,88,0.00,CLR,,0.00,WeatherDisplay:10.37,2013-06-14 04:44:00,
2013-06-13 23:46:00,56.8,53.3,28.85,WNW,292,0.0,0.0,88,0.00,CLR,,0.00,WeatherDisplay:10.37,2013-06-14 04:46:00,
2013-06-13 23:47:00,56.8,53.3,28.85,WNW,292,0.0,0.0,88,0.00,CLR,,0.00,WeatherDisplay:10.37,2013-06-14 04:47:00,
2013-06-13 23:49:00,56.8,53.3,28.85,WNW,292,0.0,0.0,88,0.00,CLR,,0.00,WeatherDisplay:10.37,2013-06-14 04:49:00,
2013-06-13 23:50:00,56.8,53.3,28.85,WNW,292,0.0,0.0,88,0.00,CLR,,0.00,WeatherDisplay:10.37,2013-06-14 04:50:00,
2013-06-13 23:51:00,56.7,53.1,28.85,WNW,292,0.0,0.0,88,0.00,CLR,,0.00,WeatherDisplay:10.37,2013-06-14 04:51:00,
2013-06-13 23:52:00,56.7,53.1,28.85,WNW,292,0.0,0.0,88,0.00,CLR,,0.00,WeatherDisplay:10.37,2013-06-14 04:52:00,
2013-06-13 23:53:00,56.7,53.1,28.85,WNW,292,0.0,0.0,88,0.00,CLR,,0.00,WeatherDisplay:10.37,2013-06-14 04:53:00,
2013-06-13 23:54:00,56.7,53.1,28.85,West,270,0.0,0.0,88,0.00,CLR,,0.00,WeatherDisplay:10.37,2013-06-14 04:54:00,
2013-06-13 23:55:00,56.7,53.5,28.85,West,270,0.0,0.0,89,0.00,CLR,,0.00,WeatherDisplay:10.37,2013-06-14 04:55:00,
2013-06-13 23:56:00,56.7,53.5,28.85,West,270,0.0,0.0,89,0.00,CLR,,0.00,WeatherDisplay:10.37,2013-06-14 04:56:00,
2013-06-13 23:57:00,56.7,53.5,28.85,West,270,0.0,0.0,89,0.00,CLR,,0.00,WeatherDisplay:10.37,2013-06-14 04:57:00,
2013-06-13 23:58:00,56.7,53.5,28.85,West,270,0.0,0.0,89,0.00,CLR,,0.00,WeatherDisplay:10.37,2013-06-14 04:58:00,